createdAt,value
2022-08-05T00:01:36.260Z,2.60
2022-08-05T00:04:19.039Z,2.15
2022-08-05T00:06:47.108Z,2.40
2022-08-05T00:09:16.019Z,2.55
2022-08-05T00:11:48.268Z,2.78
2022-08-05T00:14:17.531Z,2.90
2022-08-05T00:16:52.699Z,2.67
2022-08-05T00:19:21.531Z,2.72
2022-08-05T00:21:49.738Z,2.95
2022-08-05T00:24:19.129Z,2.35
2022-08-05T00:26:53.272Z,2.60
2022-08-05T00:29:25.369Z,2.80
2022-08-05T00:32:12.480Z,2.63
2022-08-05T00:35:04.465Z,2.53
2022-08-05T00:37:50.542Z,2.50
2022-08-05T00:40:26.622Z,2.90
2022-08-05T00:43:00.323Z,2.75
2022-08-05T00:45:42.768Z,3.00
2022-08-05T00:48:31.262Z,2.70
2022-08-05T00:50:58.742Z,2.42
2022-08-05T00:54:00.058Z,2.70
2022-08-05T00:56:17.383Z,4.32
2022-08-05T00:58:49.870Z,3.20
2022-08-05T01:01:24.724Z,2.90
2022-08-05T01:04:04.077Z,3.00
2022-08-05T01:06:40.793Z,2.90
2022-08-05T01:09:10.480Z,2.65
2022-08-05T01:11:39.501Z,2.88
2022-08-05T01:14:17.994Z,3.00
2022-08-05T01:17:07.361Z,2.53
2022-08-05T01:20:00.862Z,2.63
2022-08-05T01:23:14.447Z,2.45
2022-08-05T01:26:26.985Z,2.50
2022-08-05T01:29:05.333Z,2.10
2022-08-05T01:31:44.761Z,2.33
2022-08-05T01:34:36.509Z,2.30
2022-08-05T01:37:25.108Z,2.58
2022-08-05T01:39:58.654Z,2.58
2022-08-05T01:42:29.619Z,2.63
2022-08-05T01:44:59.924Z,2.75
2022-08-05T01:47:39.442Z,2.35
2022-08-05T01:50:15.768Z,2.97
2022-08-05T01:52:50.170Z,3.33
2022-08-05T01:55:21.152Z,3.35
2022-08-05T01:58:13.190Z,3.30
2022-08-05T02:00:45.393Z,3.13
2022-08-05T02:03:31.764Z,3.00
2022-08-05T02:06:03.748Z,3.17
2022-08-05T02:08:57.985Z,2.55
2022-08-05T02:11:32.964Z,3.17
2022-08-05T02:14:16.958Z,3.30
2022-08-05T02:16:53.377Z,3.30
2022-08-05T02:19:36.435Z,3.10
2022-08-05T02:22:26.645Z,3.08
2022-08-05T02:25:04.003Z,2.80
2022-08-05T02:27:59.332Z,2.90
2022-08-05T02:30:30.816Z,3.07
2022-08-05T02:33:00.249Z,2.97
2022-08-05T02:35:33.217Z,2.63
2022-08-05T02:38:06.192Z,3.58
2022-08-05T02:40:41.735Z,2.58
2022-08-05T02:43:12.909Z,3.17
2022-08-05T02:45:52.519Z,2.70
2022-08-05T02:48:29.159Z,2.60
2022-08-05T02:51:00.357Z,2.80
2022-08-05T02:53:39.206Z,3.10
2022-08-05T02:56:15.740Z,2.75
2022-08-05T02:58:51.485Z,3.22
2022-08-05T03:01:25.028Z,2.72
2022-08-05T03:04:03.113Z,2.33
2022-08-05T03:06:54.539Z,2.85
2022-08-05T03:09:36.332Z,2.70
2022-08-05T03:12:06.704Z,2.58
2022-08-05T03:14:40.907Z,2.53
2022-08-05T03:17:13.033Z,2.50
2022-08-05T03:19:40.031Z,2.50
2022-08-05T03:22:16.579Z,2.53
2022-08-05T03:24:51.125Z,3.08
2022-08-05T03:27:20.738Z,2.42
2022-08-05T03:30:07.222Z,2.58
2022-08-05T03:32:36.541Z,2.78
2022-08-05T03:35:04.425Z,2.58
2022-08-05T03:37:45.847Z,2.65
2022-08-05T03:40:15.501Z,2.60
2022-08-05T03:42:52.909Z,2.63
2022-08-05T03:45:23.088Z,2.70
2022-08-05T03:47:51.578Z,2.33
2022-08-05T03:50:18.870Z,2.65
2022-08-05T03:55:34.391Z,2.17
2022-08-05T03:56:10.830Z,2.47
2022-08-05T03:58:45.681Z,2.22
2022-08-05T04:01:17.127Z,2.85
2022-08-05T04:04:09.524Z,2.50
2022-08-05T04:06:38.378Z,2.10
2022-08-05T04:09:15.983Z,2.25
2022-08-05T04:11:53.410Z,2.83
2022-08-05T04:14:29.950Z,2.80
2022-08-05T04:17:00.749Z,2.17
2022-08-05T04:19:30.070Z,2.17
2022-08-05T04:22:10.359Z,2.53
2022-08-05T04:24:52.899Z,2.50
2022-08-05T04:27:41.871Z,2.55
2022-08-05T04:30:09.469Z,2.38
2022-08-05T04:32:37.727Z,2.00
2022-08-05T04:35:07.320Z,2.38
2022-08-05T04:38:02.346Z,2.13
2022-08-05T04:40:44.469Z,2.40
2022-08-05T04:43:17.489Z,2.80
2022-08-05T04:45:54.851Z,2.45
2022-08-05T04:51:03.263Z,2.30
2022-08-05T04:53:38.668Z,2.67
2022-08-05T04:56:33.192Z,2.45
2022-08-05T04:58:56.479Z,2.30
2022-08-05T05:02:05.709Z,2.33
2022-08-05T05:04:10.485Z,2.50
2022-08-05T05:06:44.521Z,2.67
2022-08-05T05:09:16.889Z,2.25
2022-08-05T05:11:53.202Z,2.60
2022-08-05T05:14:27.953Z,2.33
2022-08-05T05:17:00.651Z,2.70
2022-08-05T05:19:36.591Z,2.80
2022-08-05T05:22:23.427Z,2.60
2022-08-05T05:24:58.147Z,2.25
2022-08-05T05:27:41.745Z,2.35
2022-08-05T05:30:29.644Z,2.35
2022-08-05T05:33:03.458Z,2.28
2022-08-05T05:35:37.888Z,2.15
2022-08-05T05:38:09.397Z,2.42
2022-08-05T05:40:49.790Z,2.60
2022-08-05T05:43:56.500Z,2.88
2022-08-05T05:46:17.258Z,2.55
2022-08-05T05:48:47.794Z,2.97
2022-08-05T05:51:25.965Z,2.60
2022-08-05T05:53:59.531Z,2.70
2022-08-05T05:56:34.457Z,2.40
2022-08-05T05:59:07.632Z,2.42
2022-08-05T06:01:40.803Z,2.63
2022-08-05T06:04:24.035Z,2.75
2022-08-05T06:06:50.885Z,2.53
2022-08-05T06:09:25.596Z,2.83
2022-08-05T06:12:03.309Z,2.70
2022-08-05T06:14:31.627Z,2.90
2022-08-05T06:16:59.402Z,3.00
2022-08-05T06:19:34.469Z,3.00
2022-08-05T06:24:48.171Z,2.47
2022-08-05T06:27:17.186Z,2.72
2022-08-05T06:30:17.933Z,2.50
2022-08-05T06:32:48.459Z,2.55
2022-08-05T06:36:02.937Z,2.40
2022-08-05T06:38:11.493Z,2.38
2022-08-05T06:40:42.269Z,2.15
2022-08-05T06:43:59.786Z,2.10
2022-08-05T06:46:03.762Z,2.78
2022-08-05T06:48:53.608Z,2.20
2022-08-05T06:51:29.600Z,2.40
2022-08-05T06:53:59.941Z,2.10
2022-08-05T06:56:28.534Z,2.30
2022-08-05T06:58:55.880Z,2.63
2022-08-05T07:01:23.449Z,2.20
2022-08-05T07:03:55.677Z,1.92
2022-08-05T07:06:23.259Z,1.90
2022-08-05T07:08:51.918Z,2.03
2022-08-05T07:11:22.513Z,2.03
2022-08-05T07:14:20.518Z,2.22
2022-08-05T07:18:01.238Z,1.60
2022-08-05T07:20:31.388Z,1.83
2022-08-05T07:22:35.202Z,2.25
2022-08-05T07:25:54.345Z,1.73
2022-08-05T07:27:57.197Z,1.92
2022-08-05T07:30:39.049Z,1.90
2022-08-05T07:33:16.226Z,2.03
2022-08-05T07:36:01.748Z,2.10
2022-08-05T07:38:42.932Z,1.85
2022-08-05T07:42:08.710Z,2.08
2022-08-05T07:44:14.258Z,2.13
2022-08-05T07:46:48.201Z,2.05
2022-08-05T07:49:18.294Z,1.90
2022-08-05T07:51:53.373Z,2.00
2022-08-05T07:54:31.767Z,2.00
2022-08-05T07:57:41.711Z,2.03
2022-08-05T07:59:49.746Z,2.08
2022-08-05T08:02:17.923Z,2.03
2022-08-05T08:04:49.433Z,2.00
2022-08-05T08:07:22.690Z,1.73
2022-08-05T08:09:53.107Z,1.77
2022-08-05T08:12:35.486Z,1.88
2022-08-05T08:15:09.709Z,1.63
2022-08-05T08:17:46.261Z,1.90
2022-08-05T08:20:44.657Z,1.95
2022-08-05T08:23:04.658Z,1.80
2022-08-05T08:25:59.945Z,1.63
2022-08-05T08:28:36.445Z,1.65
2022-08-05T08:31:08.085Z,1.90
2022-08-05T08:33:36.052Z,1.98
2022-08-05T08:36:38.939Z,1.75
2022-08-05T08:38:55.459Z,1.42
2022-08-05T08:41:26.212Z,1.58
2022-08-05T08:45:19.740Z,2.10
2022-08-05T08:47:21.935Z,1.73
2022-08-05T08:50:06.160Z,1.50
2022-08-05T08:52:53.720Z,1.55
2022-08-05T08:56:02.703Z,1.48
2022-08-05T08:58:13.048Z,1.98
2022-08-05T09:00:42.665Z,1.80
2022-08-05T09:03:11.655Z,1.70
2022-08-05T09:06:07.729Z,1.27
2022-08-05T09:08:30.100Z,1.45
2022-08-05T09:10:58.267Z,1.30
2022-08-05T09:13:31.829Z,1.40
2022-08-05T09:16:16.792Z,1.52
2022-08-05T09:18:44.483Z,2.05
2022-08-05T09:21:21.089Z,1.70
2022-08-05T09:24:10.323Z,1.88
2022-08-05T09:26:37.418Z,1.50
2022-08-05T09:29:08.827Z,1.90
2022-08-05T09:32:42.298Z,1.60
2022-08-05T09:34:22.895Z,1.50
2022-08-05T09:36:55.923Z,1.95
2022-08-05T09:39:39.100Z,1.60
2022-08-05T09:42:24.523Z,1.30
2022-08-05T09:44:57.498Z,1.27
2022-08-05T09:47:36.425Z,1.50
2022-08-05T09:50:38.134Z,1.77
2022-08-05T09:53:09.136Z,1.60
2022-08-05T09:55:58.277Z,1.40
2022-08-05T09:58:29.232Z,1.60
2022-08-05T10:01:14.649Z,1.58
2022-08-05T10:04:10.342Z,1.90
2022-08-05T10:06:40.639Z,2.00
2022-08-05T10:09:27.349Z,1.70
2022-08-05T10:11:56.231Z,1.70
2022-08-05T10:14:32.208Z,1.73
2022-08-05T10:17:37.430Z,1.20
2022-08-05T10:20:09.903Z,1.70
2022-08-05T10:22:42.899Z,1.40
2022-08-05T10:25:15.974Z,1.58
2022-08-05T10:28:12.845Z,1.60
2022-08-05T10:32:03.042Z,1.60
2022-08-05T10:33:18.042Z,1.45
2022-08-05T10:35:58.989Z,1.73
2022-08-05T10:38:29.743Z,2.53
2022-08-05T10:44:11.312Z,2.00
2022-08-05T10:46:54.705Z,1.73
2022-08-05T10:49:27.501Z,1.80
2022-08-05T10:52:03.225Z,1.77
2022-08-05T10:55:04.583Z,1.40
2022-08-05T10:57:34.021Z,1.67
2022-08-05T11:00:23.109Z,1.70
2022-08-05T11:03:23.410Z,1.75
2022-08-05T11:06:16.134Z,1.75
2022-08-05T11:09:24.397Z,1.70
2022-08-05T11:12:27.426Z,1.30
2022-08-05T11:15:20.502Z,1.73
2022-08-05T11:17:57.922Z,1.55
2022-08-05T11:20:44.022Z,1.65
2022-08-05T11:26:32.448Z,1.17
2022-08-05T11:29:12.729Z,1.40
2022-08-05T11:31:53.931Z,1.30
2022-08-05T11:34:51.051Z,1.40
2022-08-05T11:38:30.196Z,1.40
2022-08-05T11:41:34.416Z,1.05
2022-08-05T11:44:04.969Z,1.30
2022-08-05T11:47:09.270Z,1.30
2022-08-05T11:49:33.824Z,1.30
2022-08-05T11:52:01.765Z,1.50
2022-08-05T11:54:40.624Z,1.50
2022-08-05T11:57:26.081Z,1.70
2022-08-05T11:59:55.146Z,1.60
2022-08-05T12:02:31.167Z,1.90
2022-08-05T12:05:07.453Z,2.10
2022-08-05T12:08:08.028Z,1.90
2022-08-05T12:10:42.997Z,1.80
2022-08-05T12:13:18.759Z,1.63
2022-08-05T12:16:18.209Z,1.75
2022-08-05T12:18:49.318Z,2.10
2022-08-05T12:21:39.054Z,1.95
2022-08-05T12:24:17.360Z,1.92
2022-08-05T12:26:53.541Z,2.03
2022-08-05T12:29:29.186Z,1.73
2022-08-05T12:32:07.449Z,1.83
2022-08-05T12:34:38.437Z,1.80
2022-08-05T12:37:17.450Z,1.63
2022-08-05T12:39:54.016Z,1.50
2022-08-05T12:42:25.306Z,1.70
2022-08-05T12:44:52.498Z,1.70
2022-08-05T12:47:32.952Z,1.92
2022-08-05T12:50:13.171Z,1.80
2022-08-05T12:52:42.357Z,1.95
2022-08-05T12:55:26.355Z,1.98
2022-08-05T12:58:38.632Z,1.80
2022-08-05T13:01:59.857Z,2.00
2022-08-05T13:03:42.127Z,1.95
2022-08-05T13:06:16.801Z,1.80
2022-08-05T13:08:50.921Z,1.70
2022-08-05T13:12:03.114Z,1.95
2022-08-05T13:14:25.081Z,1.55
2022-08-05T13:17:08.663Z,1.80
2022-08-05T13:19:51.916Z,1.88
2022-08-05T13:22:27.715Z,2.05
2022-08-05T13:25:00.346Z,1.73
2022-08-05T13:27:37.510Z,2.00
2022-08-05T13:30:34.787Z,1.95
2022-08-05T13:32:56.634Z,1.65
2022-08-05T13:35:31.444Z,1.80
2022-08-05T13:38:20.275Z,1.80
2022-08-05T13:40:57.357Z,1.55
2022-08-05T13:43:24.250Z,1.80
2022-08-05T13:46:11.853Z,1.70
2022-08-05T13:48:58.295Z,2.05
2022-08-05T13:51:36.666Z,1.90
2022-08-05T13:54:15.283Z,1.70
2022-08-05T13:56:50.410Z,1.80
2022-08-05T13:59:21.432Z,1.50
2022-08-05T14:01:56.564Z,1.88
2022-08-05T14:04:51.330Z,1.77
2022-08-05T14:08:00.419Z,1.80
2022-08-05T14:10:29.022Z,2.17
2022-08-05T14:12:59.663Z,1.95
2022-08-05T14:16:06.853Z,1.65
2022-08-05T14:18:18.584Z,1.70
2022-08-05T14:20:54.931Z,1.73
2022-08-05T14:23:25.583Z,1.70
2022-08-05T14:25:58.146Z,1.75
2022-08-05T14:28:28.589Z,1.55
2022-08-05T14:30:57.812Z,1.60
2022-08-05T14:33:24.663Z,1.80
2022-08-05T14:35:54.040Z,1.80
2022-08-05T14:38:32.816Z,1.80
2022-08-05T14:41:07.784Z,2.03
2022-08-05T14:43:59.342Z,2.10
2022-08-05T14:46:28.801Z,1.92
2022-08-05T14:48:59.041Z,1.88
2022-08-05T14:51:31.087Z,1.83
2022-08-05T14:54:27.094Z,1.83
2022-08-05T14:56:48.660Z,1.92
2022-08-05T14:59:18.331Z,1.70
2022-08-05T15:01:49.946Z,2.30
2022-08-05T15:04:20.281Z,2.15
2022-08-05T15:06:49.258Z,2.03
2022-08-05T15:09:52.223Z,2.15
2022-08-05T15:12:09.441Z,1.80
2022-08-05T15:14:42.193Z,2.17
2022-08-05T15:17:46.685Z,2.22
2022-08-05T15:20:04.508Z,2.25
2022-08-05T15:22:31.675Z,2.67
2022-08-05T15:24:59.281Z,2.20
2022-08-05T15:27:35.919Z,2.22
2022-08-05T15:30:04.674Z,2.28
2022-08-05T15:32:31.744Z,2.10
2022-08-05T15:34:58.643Z,2.10
2022-08-05T15:38:32.717Z,2.47
2022-08-05T15:41:00.573Z,2.40
2022-08-05T15:43:11.176Z,2.22
2022-08-05T15:45:47.577Z,2.40
2022-08-05T15:48:15.286Z,2.13
2022-08-05T15:50:43.753Z,2.25
2022-08-05T15:53:13.342Z,2.20
2022-08-05T15:56:02.299Z,2.20
2022-08-05T15:58:29.409Z,2.20
2022-08-05T16:01:15.799Z,2.20
2022-08-05T16:03:50.266Z,2.60
2022-08-05T16:06:20.345Z,2.22
2022-08-05T16:08:50.255Z,2.40
2022-08-05T16:11:18.424Z,2.42
2022-08-05T16:13:48.392Z,2.42
2022-08-05T16:16:21.209Z,2.55
2022-08-05T16:18:52.686Z,2.35
2022-08-05T16:21:20.808Z,2.03
2022-08-05T16:24:35.830Z,2.40
2022-08-05T16:27:00.338Z,2.20
2022-08-05T16:29:31.241Z,2.20
2022-08-05T16:32:06.646Z,2.42
2022-08-05T16:34:39.278Z,2.20
2022-08-05T16:38:02.813Z,2.20
2022-08-05T16:40:05.241Z,2.50
2022-08-05T16:42:34.559Z,2.70
2022-08-05T16:45:02.259Z,2.50
2022-08-05T16:47:54.079Z,2.85
2022-08-05T16:50:24.678Z,2.97
2022-08-05T16:52:51.426Z,3.00
2022-08-05T16:55:19.791Z,2.88
2022-08-05T16:58:00.021Z,2.70
2022-08-05T17:00:34.706Z,2.45
2022-08-05T17:03:03.787Z,2.60
2022-08-05T17:05:37.045Z,2.40
2022-08-05T17:08:04.728Z,2.10
2022-08-05T17:10:31.694Z,2.28
2022-08-05T17:12:58.514Z,2.50
2022-08-05T17:15:44.746Z,2.08
2022-08-05T17:18:14.102Z,1.80
2022-08-05T17:20:42.216Z,1.88
2022-08-05T17:24:02.911Z,1.42
2022-08-05T17:25:57.900Z,1.50
2022-08-05T17:28:24.816Z,1.60
2022-08-05T17:30:55.682Z,1.23
2022-08-05T17:33:23.576Z,1.20
2022-08-05T17:36:08.396Z,1.35
2022-08-05T17:38:37.827Z,1.20
2022-08-05T17:41:23.008Z,1.13
2022-08-05T17:43:54.923Z,1.10
2022-08-05T17:46:23.657Z,1.00
2022-08-05T17:48:50.641Z,0.80
2022-08-05T17:51:21.931Z,0.90
2022-08-05T17:53:54.679Z,1.00
2022-08-05T17:56:22.635Z,0.80
2022-08-05T17:58:49.882Z,0.80
2022-08-05T18:01:19.258Z,1.05
2022-08-05T18:03:57.814Z,0.80
2022-08-05T18:06:31.847Z,0.73
2022-08-05T18:08:59.338Z,0.60
2022-08-05T18:11:32.952Z,0.60
2022-08-05T18:14:07.284Z,0.75
2022-08-05T18:19:22.911Z,0.50
2022-08-05T18:22:09.060Z,0.50
2022-08-05T18:24:37.977Z,0.70
2022-08-05T18:27:12.532Z,1.10
2022-08-05T18:29:52.034Z,0.90
2022-08-05T18:32:21.551Z,0.60
2022-08-05T18:34:56.662Z,0.70
2022-08-05T18:37:34.399Z,0.52
2022-08-05T18:41:03.329Z,0.50
2022-08-05T18:42:56.526Z,0.52
2022-08-05T18:45:24.027Z,0.50
2022-08-05T18:47:56.503Z,0.50
2022-08-05T18:50:46.486Z,0.60
2022-08-05T18:53:19.197Z,0.40
2022-08-05T18:55:49.552Z,0.73
2022-08-05T18:58:16.598Z,0.50
2022-08-05T19:00:43.486Z,0.55
2022-08-05T19:03:15.074Z,0.50
2022-08-05T19:06:11.482Z,0.70
2022-08-05T19:08:30.843Z,0.70
2022-08-05T19:10:59.420Z,0.90
2022-08-05T19:13:29.696Z,0.70
2022-08-05T19:16:04.073Z,1.20
2022-08-05T19:18:31.817Z,0.77
2022-08-05T19:20:59.671Z,0.70
2022-08-05T19:24:05.376Z,0.90
2022-08-05T19:26:14.625Z,0.88
2022-08-05T19:28:43.585Z,0.80
2022-08-05T19:31:13.030Z,1.10
2022-08-05T19:33:48.285Z,1.08
2022-08-05T19:36:25.491Z,1.15
2022-08-05T19:38:55.336Z,1.38
2022-08-05T19:41:34.675Z,1.85
2022-08-05T19:44:15.727Z,1.58
2022-08-05T19:46:43.738Z,1.20
2022-08-05T19:49:16.526Z,1.10
2022-08-05T19:52:09.306Z,1.30
2022-08-05T19:54:32.953Z,1.20
2022-08-05T19:57:09.175Z,1.10
2022-08-05T19:59:55.247Z,1.10
2022-08-05T20:02:27.928Z,0.95
2022-08-05T20:04:58.876Z,0.95
2022-08-05T20:07:46.647Z,1.08
2022-08-05T20:10:15.441Z,1.33
2022-08-05T20:12:47.625Z,0.93
2022-08-05T20:15:23.399Z,1.10
2022-08-05T20:18:10.616Z,1.00
2022-08-05T20:20:55.068Z,0.98
2022-08-05T20:23:22.837Z,1.10
2022-08-05T20:25:52.290Z,1.00
2022-08-05T20:28:20.949Z,1.20
2022-08-05T20:30:49.362Z,1.20
2022-08-05T20:33:16.412Z,1.13
2022-08-05T20:35:45.682Z,1.23
2022-08-05T20:38:22.765Z,1.23
2022-08-05T20:40:55.495Z,1.10
2022-08-05T20:43:58.272Z,1.13
2022-08-05T20:46:18.517Z,0.82
2022-08-05T20:48:51.747Z,1.00
2022-08-05T20:51:18.557Z,0.90
2022-08-05T20:53:56.408Z,1.13
2022-08-05T20:56:28.720Z,1.00
2022-08-05T20:58:59.961Z,1.00
2022-08-05T21:01:41.510Z,1.45
2022-08-05T21:04:10.725Z,1.35
2022-08-05T21:06:45.179Z,1.50
2022-08-05T21:09:15.005Z,1.45
2022-08-05T21:12:08.913Z,1.70
2022-08-05T21:14:35.329Z,1.42
2022-08-05T21:17:05.317Z,1.40
2022-08-05T21:19:47.354Z,1.02
2022-08-05T21:22:23.167Z,1.30
2022-08-05T21:24:52.544Z,1.02
2022-08-05T21:27:25.296Z,1.00
2022-08-05T21:29:56.280Z,1.58
2022-08-05T21:32:27.225Z,1.33
2022-08-05T21:35:17.768Z,1.45
2022-08-05T21:37:53.090Z,1.30
2022-08-05T21:40:24.669Z,1.10
2022-08-05T21:42:53.520Z,1.02
2022-08-05T21:45:24.556Z,1.02
2022-08-05T21:47:57.642Z,1.23
2022-08-05T21:50:26.521Z,1.15
2022-08-05T21:52:58.904Z,1.00
2022-08-05T21:55:42.932Z,0.85
2022-08-05T21:58:19.446Z,1.00
2022-08-05T22:00:51.312Z,0.80
2022-08-05T22:03:18.597Z,0.88
2022-08-05T22:06:06.294Z,1.02
2022-08-05T22:08:35.317Z,1.10
2022-08-05T22:11:02.163Z,0.80
2022-08-05T22:14:06.507Z,0.88
2022-08-05T22:16:41.396Z,1.00
2022-08-05T22:19:15.162Z,1.00
2022-08-05T22:21:54.137Z,0.93
2022-08-05T22:24:52.347Z,1.17
2022-08-05T22:28:09.619Z,1.30
2022-08-05T22:30:35.193Z,0.88
2022-08-05T22:33:15.490Z,0.90
2022-08-05T22:35:48.685Z,0.90
2022-08-05T22:38:16.991Z,1.33
2022-08-05T22:40:49.885Z,0.85
2022-08-05T22:43:36.782Z,1.10
2022-08-05T22:46:12.046Z,1.50
2022-08-05T22:48:43.287Z,1.20
2022-08-05T22:51:16.044Z,1.00
2022-08-05T22:53:51.217Z,1.35
2022-08-05T22:56:29.693Z,1.23
2022-08-05T22:58:57.111Z,1.30
2022-08-05T23:01:24.110Z,1.38
2022-08-05T23:04:10.906Z,1.20
2022-08-05T23:06:37.909Z,1.10
2022-08-05T23:09:26.878Z,0.90
2022-08-05T23:11:51.861Z,1.00
2022-08-05T23:14:22.675Z,1.02
2022-08-05T23:17:18.711Z,0.90
2022-08-05T23:19:56.309Z,0.98
2022-08-05T23:22:27.565Z,0.80
2022-08-05T23:24:54.979Z,0.93
2022-08-05T23:27:22.765Z,0.90
2022-08-05T23:29:51.142Z,0.82
2022-08-05T23:32:22.848Z,0.85
2022-08-05T23:34:50.865Z,0.77
2022-08-05T23:37:18.403Z,0.82
2022-08-05T23:39:54.485Z,0.77
2022-08-05T23:42:29.348Z,0.80
2022-08-05T23:44:57.112Z,0.90
2022-08-05T23:47:24.840Z,0.60
2022-08-05T23:49:55.678Z,0.73
2022-08-05T23:52:28.376Z,0.70
2022-08-05T23:55:05.254Z,0.80
2022-08-05T23:57:34.610Z,0.73
